logo
Search for airport 
image banner adimage banner adimage banner ad
image banner ad

EHWX - Woensdrecht (Air Force Met Group)

Located in , Netherlands

ICAO - , IATA -

Data provided by Airmate  

General information

Coordinates: N51°26'56" E4°20'32"
Elevation is 63 feet MSL.
 
View others Airports in Noord-Brabant

Operational data

Special qualification required
Current time UTC:
Current local time:
Weather at : EHWO - Bergen Op Zoom/Woensdrecht ( 0 km )
METAR: EHWO 241055Z AUTO 27006KT 210V320 9999 NCD 20/13 Q1022 BLU NOSIG
TAF: TAF EHWO 240839Z 2409/2421 35007KT 9999 SCT025 BECMG 2409/2412 32005KT
View NOTAMs / SUP AIP / TFR affecting this airport [VIEW]
Communications frequencies: [VIEW]

Runways:

Airport contact information

Address: Netherlands

Satellite view of EHWX